Time;durP1;ratioP1;P1;durP2;ratioP2;P2;SDS_P1;SDS_P2;PMS_P1;PMS_P2;Temp;Humidity;BMP_temperature;BMP_pressure;BME280_temperature;BME280_humidity;BME280_pressure;Samples;Min_cycle;Max_cycle;Signal;HPM_P1;HPM_P2
2022/10/16 00:01:18;;;;;;;3.35;2.80;;;14.80;99.90;;;;;;5003504;28;20204;-77
2022/10/16 00:03:47;;;;;;;5.15;2.97;;;14.80;99.90;;;;;;4942430;28;20222;-77
2022/10/16 00:06:15;;;;;;;5.28;3.08;;;14.80;99.90;;;;;;4952215;28;20217;-77
2022/10/16 00:08:43;;;;;;;4.30;2.42;;;14.80;99.90;;;;;;4936773;28;20208;-77
2022/10/16 00:11:13;;;;;;;3.63;2.42;;;14.80;99.90;;;;;;4937623;28;20197;-77
2022/10/16 00:13:42;;;;;;;3.40;2.75;;;14.80;99.90;;;;;;4936008;29;20205;-77
2022/10/16 00:16:13;;;;;;;3.40;2.90;;;14.80;99.90;;;;;;4954008;28;20195;-77
2022/10/16 00:18:41;;;;;;;2.75;2.35;;;14.80;99.90;;;;;;4948909;28;20710;-77
2022/10/16 00:21:11;;;;;;;4.28;2.58;;;14.80;99.90;;;;;;4952747;28;20205;-77
2022/10/16 00:23:38;;;;;;;3.40;2.42;;;14.80;99.90;;;;;;4953600;28;20261;-77
2022/10/16 00:26:08;;;;;;;3.22;2.58;;;14.80;99.90;;;;;;4953921;28;20217;-77
2022/10/16 00:28:37;;;;;;;4.07;2.42;;;14.80;99.90;;;;;;4954700;28;20244;-77
2022/10/16 00:31:05;;;;;;;4.88;2.38;;;14.80;99.90;;;;;;4946148;28;20214;-77
2022/10/16 00:33:34;;;;;;;3.50;2.50;;;14.80;99.90;;;;;;4934619;28;20206;-77
2022/10/16 00:36:04;;;;;;;3.42;2.40;;;14.80;99.90;;;;;;5008289;28;20207;-77
2022/10/16 00:38:31;;;;;;;3.28;2.55;;;14.80;99.90;;;;;;5013317;28;20203;-77
2022/10/16 00:40:59;;;;;;;2.55;2.22;;;14.80;99.90;;;;;;4995132;28;20230;-77
2022/10/16 00:43:37;;;;;;;4.15;2.35;;;14.80;99.90;;;;;;4999459;28;20203;-77
2022/10/16 00:46:09;;;;;;;6.68;3.15;;;14.80;99.90;;;;;;5012606;28;20203;-76
2022/10/16 00:48:38;;;;;;;4.57;2.58;;;14.80;99.90;;;;;;5011271;28;20212;-77
2022/10/16 00:51:08;;;;;;;4.80;3.00;;;14.80;99.90;;;;;;4998425;28;20346;-77
2022/10/16 00:53:36;;;;;;;3.03;2.30;;;14.80;99.90;;;;;;4994835;28;20215;-77
2022/10/16 00:56:04;;;;;;;4.07;2.47;;;14.80;99.90;;;;;;4993241;28;20199;-77
2022/10/16 00:58:31;;;;;;;4.60;2.72;;;14.70;99.90;;;;;;5011840;28;20203;-76
2022/10/16 01:00:59;;;;;;;4.22;2.45;;;14.80;99.90;;;;;;5011051;28;20661;-77
2022/10/16 01:03:28;;;;;;;3.53;2.70;;;14.70;99.90;;;;;;5001146;28;20200;-77
2022/10/16 01:06:14;;;;;;;3.10;2.10;;;14.70;99.90;;;;;;4996271;28;20325;-77
2022/10/16 01:08:52;;;;;;;2.30;2.10;;;14.70;99.90;;;;;;4993215;28;20195;-77
2022/10/16 01:11:26;;;;;;;2.92;2.30;;;14.70;99.90;;;;;;4998776;28;20207;-77
2022/10/16 01:13:56;;;;;;;3.67;1.83;;;14.70;99.90;;;;;;5010109;28;20192;-77
2022/10/16 01:16:32;;;;;;;2.45;1.85;;;14.70;99.90;;;;;;5012179;28;20203;-77
2022/10/16 01:19:05;;;;;;;2.17;1.92;;;14.70;99.90;;;;;;4999671;28;20210;-77
2022/10/16 01:21:38;;;;;;;2.67;2.03;;;14.70;99.90;;;;;;4997611;28;20203;-77
2022/10/16 01:24:15;;;;;;;9.65;2.20;;;14.70;99.90;;;;;;5009919;28;20220;-77
2022/10/16 01:27:02;;;;;;;3.50;2.20;;;14.70;99.90;;;;;;5016301;28;20203;-77
2022/10/16 01:29:33;;;;;;;2.53;2.03;;;14.70;99.90;;;;;;5006127;28;20211;-77
2022/10/16 01:32:05;;;;;;;2.53;1.58;;;14.70;99.90;;;;;;5010467;28;20211;-77
2022/10/16 01:34:38;;;;;;;3.28;1.95;;;14.70;99.90;;;;;;5013126;28;20664;-77
2022/10/16 01:41:01;;;;;;;3.20;1.65;;;14.60;99.90;;;;;;5013441;28;20226;-77
2022/10/16 01:43:35;;;;;;;1.85;1.48;;;14.60;99.90;;;;;;4987713;28;20218;-77
2022/10/16 01:46:04;;;;;;;5.03;1.45;;;14.60;99.90;;;;;;5009521;28;20199;-77
2022/10/16 01:48:32;;;;;;;1.90;1.70;;;14.60;99.90;;;;;;5007775;28;20584;-77
2022/10/16 01:51:05;;;;;;;2.67;1.85;;;14.60;99.90;;;;;;5009582;28;20223;-77
2022/10/16 01:53:34;;;;;;;3.42;1.80;;;14.60;99.90;;;;;;5010122;28;20204;-77
2022/10/16 01:56:04;;;;;;;2.13;1.65;;;14.50;99.90;;;;;;5011237;28;20203;-77
2022/10/16 01:58:35;;;;;;;2.80;2.10;;;14.50;99.90;;;;;;5011340;28;20207;-77
2022/10/16 02:01:05;;;;;;;3.08;1.50;;;14.50;99.90;;;;;;4992609;28;20219;-77
2022/10/16 02:03:35;;;;;;;1.67;1.50;;;14.50;99.90;;;;;;5009869;28;20207;-77
2022/10/16 02:06:02;;;;;;;4.18;1.90;;;14.50;99.90;;;;;;4992851;28;20219;-77
2022/10/16 02:08:31;;;;;;;4.30;1.52;;;14.50;99.90;;;;;;4994164;28;20214;-77
2022/10/16 02:11:01;;;;;;;4.05;1.75;;;14.50;99.90;;;;;;5008331;28;20223;-77
2022/10/16 02:13:34;;;;;;;3.10;1.67;;;14.50;99.90;;;;;;4993721;28;20203;-77
2022/10/16 02:16:01;;;;;;;1.60;1.48;;;14.50;99.90;;;;;;5021784;28;20191;-77
2022/10/16 02:18:30;;;;;;;2.20;1.67;;;14.40;99.90;;;;;;5013189;28;20565;-77
2022/10/16 02:21:01;;;;;;;2.30;1.83;;;14.50;99.90;;;;;;4993976;28;20224;-77
2022/10/16 02:23:36;;;;;;;2.53;1.58;;;14.50;99.90;;;;;;4994170;28;20207;-77
2022/10/16 02:26:08;;;;;;;2.15;1.50;;;14.50;99.90;;;;;;5013370;28;20583;-77
2022/10/16 02:28:42;;;;;;;2.45;2.10;;;14.50;99.90;;;;;;4994952;28;20200;-77
2022/10/16 02:31:13;;;;;;;1.80;1.70;;;14.50;99.90;;;;;;5009322;28;20195;-77
2022/10/16 02:33:43;;;;;;;2.13;1.63;;;14.50;99.90;;;;;;5016426;28;20202;-77
2022/10/16 02:36:11;;;;;;;2.42;1.70;;;14.50;99.90;;;;;;5010398;28;20204;-77
2022/10/16 02:38:40;;;;;;;3.25;1.63;;;14.60;99.90;;;;;;4993292;28;20249;-77
2022/10/16 02:41:08;;;;;;;3.45;1.52;;;14.60;99.90;;;;;;4992327;28;20227;-77
2022/10/16 02:43:36;;;;;;;2.10;1.90;;;14.60;99.90;;;;;;5009591;28;20208;-76
2022/10/16 02:46:04;;;;;;;2.22;1.70;;;14.60;99.90;;;;;;4992422;28;20198;-77
2022/10/16 02:48:31;;;;;;;2.03;1.80;;;14.60;99.90;;;;;;4995519;28;20218;-77
2022/10/16 02:50:58;;;;;;;1.75;1.60;;;14.60;99.90;;;;;;5011776;28;20223;-77
2022/10/16 02:53:26;;;;;;;2.00;1.75;;;14.60;99.90;;;;;;4992531;28;20210;-77
2022/10/16 02:55:53;;;;;;;2.28;1.52;;;14.60;99.90;;;;;;4993521;28;20218;-77
2022/10/16 02:58:21;;;;;;;3.25;1.75;;;14.60;99.90;;;;;;5009665;28;20207;-77
2022/10/16 03:00:50;;;;;;;3.40;1.75;;;14.60;99.90;;;;;;5004270;28;20614;-77
2022/10/16 03:03:17;;;;;;;2.40;1.73;;;14.60;99.90;;;;;;5008732;28;20199;-77
2022/10/16 03:05:45;;;;;;;1.98;1.50;;;14.60;99.90;;;;;;4994221;28;20215;-77
2022/10/16 03:08:13;;;;;;;1.67;1.50;;;14.60;99.90;;;;;;5010465;28;20211;-77
2022/10/16 03:10:49;;;;;;;4.18;1.67;;;14.60;99.90;;;;;;5008513;28;20216;-77
2022/10/16 03:13:17;;;;;;;2.30;1.67;;;14.60;99.90;;;;;;4992204;28;20210;-77
2022/10/16 03:15:44;;;;;;;2.38;1.60;;;14.60;99.90;;;;;;5005998;28;20670;-77
2022/10/16 03:18:13;;;;;;;2.75;1.42;;;14.60;99.90;;;;;;5005759;28;20207;-77
2022/10/16 03:20:41;;;;;;;2.35;1.73;;;14.60;99.90;;;;;;4992032;28;20216;-77
2022/10/16 03:23:08;;;;;;;1.30;1.10;;;14.60;99.90;;;;;;4987478;28;20213;-77
2022/10/16 03:25:36;;;;;;;3.40;1.50;;;14.60;99.90;;;;;;5009889;28;20184;-77
2022/10/16 03:28:03;;;;;;;1.70;1.33;;;14.70;99.90;;;;;;5000327;28;20200;-77
2022/10/16 03:30:31;;;;;;;3.28;1.40;;;14.70;99.90;;;;;;4994063;28;20563;-77
2022/10/16 03:32:58;;;;;;;3.13;1.40;;;14.70;99.90;;;;;;5017627;28;20195;-77
2022/10/16 03:35:27;;;;;;;2.08;1.92;;;14.70;99.90;;;;;;4996382;28;20215;-77
2022/10/16 03:37:54;;;;;;;2.40;1.15;;;14.70;99.90;;;;;;5013545;28;20222;-77
2022/10/16 03:40:22;;;;;;;1.90;1.40;;;14.70;99.90;;;;;;5010078;28;20224;-77
2022/10/16 03:42:49;;;;;;;2.08;1.40;;;14.70;99.90;;;;;;4993354;28;20204;-77
2022/10/16 03:45:17;;;;;;;1.67;1.30;;;14.70;99.90;;;;;;4995709;28;20204;-77
2022/10/16 03:47:44;;;;;;;3.70;1.42;;;14.70;99.90;;;;;;5006376;28;20201;-77
2022/10/16 03:50:12;;;;;;;1.50;1.20;;;14.60;99.90;;;;;;4994957;28;20223;-77
2022/10/16 03:52:40;;;;;;;2.70;1.48;;;14.70;99.90;;;;;;4998815;28;20200;-77
2022/10/16 03:55:08;;;;;;;4.00;1.17;;;14.70;99.90;;;;;;4999390;28;20203;-78
2022/10/16 03:57:36;;;;;;;1.40;1.30;;;14.60;99.90;;;;;;5014572;28;20192;-77
2022/10/16 04:00:04;;;;;;;1.42;1.30;;;14.60;99.90;;;;;;5000409;28;20227;-77
2022/10/16 04:02:39;;;;;;;2.88;1.50;;;14.60;99.90;;;;;;5025124;28;20206;-78
2022/10/16 04:05:07;;;;;;;1.25;1.10;;;14.60;99.90;;;;;;5000636;28;20204;-77
2022/10/16 04:07:35;;;;;;;1.83;1.13;;;14.60;99.90;;;;;;5017449;28;20191;-77
2022/10/16 04:10:05;;;;;;;1.52;1.38;;;14.50;99.90;;;;;;5016807;28;20223;-77
2022/10/16 04:12:32;;;;;;;1.30;1.20;;;14.50;99.90;;;;;;5017045;28;20210;-77
2022/10/16 04:15:00;;;;;;;1.63;1.13;;;14.50;99.90;;;;;;4997240;28;20199;-78
2022/10/16 04:17:27;;;;;;;2.90;1.30;;;14.50;99.90;;;;;;5017405;28;20673;-78
2022/10/16 04:19:54;;;;;;;1.67;1.30;;;14.50;99.90;;;;;;5018312;28;20222;-77
2022/10/16 04:22:22;;;;;;;2.00;1.17;;;14.50;99.90;;;;;;5017501;28;20207;-77
2022/10/16 04:24:49;;;;;;;2.95;1.85;;;14.50;99.90;;;;;;5001004;28;20677;-77
2022/10/16 04:27:18;;;;;;;3.35;1.35;;;14.50;99.90;;;;;;5013720;28;20196;-77
2022/10/16 04:29:46;;;;;;;2.08;1.00;;;14.50;99.90;;;;;;4997144;28;20223;-78
2022/10/16 04:32:13;;;;;;;1.90;1.50;;;14.50;99.90;;;;;;5019821;28;20199;-78
2022/10/16 04:34:41;;;;;;;1.75;1.20;;;14.50;99.90;;;;;;5013275;28;20216;-77
2022/10/16 04:37:08;;;;;;;2.97;1.17;;;14.50;99.90;;;;;;5015651;28;20200;-77
2022/10/16 04:39:36;;;;;;;2.05;1.50;;;14.50;99.90;;;;;;4997264;28;20235;-78
2022/10/16 04:42:04;;;;;;;1.27;1.13;;;14.50;99.90;;;;;;5012790;28;20239;-78
2022/10/16 04:44:32;;;;;;;1.30;1.20;;;14.40;99.90;;;;;;4998299;28;20220;-78
2022/10/16 04:47:00;;;;;;;4.53;1.73;;;14.40;99.90;;;;;;5011603;28;20212;-78
2022/10/16 04:49:27;;;;;;;2.17;1.08;;;14.40;99.90;;;;;;5014266;28;20238;-78
2022/10/16 04:51:55;;;;;;;2.63;1.20;;;14.40;99.90;;;;;;5002190;28;20196;-78
2022/10/16 04:54:22;;;;;;;2.00;1.10;;;14.40;99.90;;;;;;5015067;28;20200;-78
2022/10/16 04:56:51;;;;;;;1.98;1.40;;;14.40;99.90;;;;;;5017647;28;20192;-78
2022/10/16 04:59:19;;;;;;;3.03;1.60;;;14.40;99.90;;;;;;5018733;28;20224;-78
2022/10/16 05:01:48;;;;;;;1.77;1.20;;;14.40;99.90;;;;;;5022709;28;20219;-78
2022/10/16 05:04:16;;;;;;;1.30;1.20;;;14.40;99.90;;;;;;4997820;28;20208;-78
2022/10/16 05:06:44;;;;;;;1.30;1.20;;;14.30;99.90;;;;;;4996469;28;20207;-78
2022/10/16 05:09:11;;;;;;;1.40;1.20;;;14.30;99.90;;;;;;4997575;28;20227;-78
2022/10/16 05:11:38;;;;;;;2.35;1.35;;;14.30;99.90;;;;;;4999496;28;20195;-78
2022/10/16 05:14:06;;;;;;;2.05;1.35;;;14.30;99.90;;;;;;5019714;28;20676;-78
2022/10/16 05:16:33;;;;;;;2.28;1.20;;;14.40;99.90;;;;;;5014852;28;20200;-77
2022/10/16 05:19:02;;;;;;;4.50;1.55;;;14.30;99.90;;;;;;5014465;28;20600;-78
2022/10/16 05:21:30;;;;;;;1.30;1.20;;;14.40;99.90;;;;;;5014928;28;20227;-78
2022/10/16 05:23:57;;;;;;;1.08;0.98;;;14.40;99.90;;;;;;5014156;28;20195;-78
2022/10/16 05:26:24;;;;;;;2.35;1.25;;;14.30;99.90;;;;;;5015386;28;20203;-78
2022/10/16 05:28:52;;;;;;;1.30;1.20;;;14.40;99.90;;;;;;5003724;28;20679;-78
2022/10/16 05:31:22;;;;;;;2.80;1.35;;;14.40;99.90;;;;;;5021919;28;20198;-79
2022/10/16 05:33:49;;;;;;;1.30;1.20;;;14.40;99.90;;;;;;5000011;28;20210;-79
2022/10/16 05:36:18;;;;;;;2.60;1.20;;;14.40;99.90;;;;;;5029665;28;20211;-79
2022/10/16 05:38:46;;;;;;;2.17;1.30;;;14.40;99.90;;;;;;5013382;28;20215;-79
2022/10/16 05:41:13;;;;;;;2.45;1.65;;;14.40;99.90;;;;;;4994353;28;20223;-79
2022/10/16 05:43:43;;;;;;;2.60;1.48;;;14.40;99.90;;;;;;5020024;28;20199;-80
2022/10/16 05:46:13;;;;;;;2.28;1.33;;;14.40;99.90;;;;;;4988410;28;20195;-79
2022/10/16 05:48:41;;;;;;;1.55;1.17;;;14.40;99.90;;;;;;4990929;28;20203;-79
2022/10/16 05:51:36;;;;;;;1.60;1.15;;;14.40;99.90;;;;;;4990809;28;20256;-79
2022/10/16 05:54:30;;;;;;;3.85;1.38;;;14.40;99.90;;;;;;5005021;28;20211;-81
2022/10/16 05:57:06;;;;;;;4.70;1.52;;;14.40;99.90;;;;;;4991865;28;20650;-80
2022/10/16 05:59:36;;;;;;;3.08;1.40;;;14.30;99.90;;;;;;5005956;28;20219;-80
2022/10/16 06:02:29;;;;;;;3.72;1.30;;;14.30;99.90;;;;;;5019549;28;20216;-79
2022/10/16 06:05:12;;;;;;;1.58;1.48;;;14.40;99.90;;;;;;5010319;28;20211;-80
2022/10/16 06:07:39;;;;;;;1.60;1.40;;;14.30;99.90;;;;;;5012966;28;20210;-79
2022/10/16 06:10:14;;;;;;;2.42;1.40;;;14.30;99.90;;;;;;5010277;28;20215;-79
2022/10/16 06:12:41;;;;;;;1.60;1.50;;;14.40;99.90;;;;;;5007420;28;20207;-79
2022/10/16 06:15:09;;;;;;;3.30;1.83;;;14.30;99.90;;;;;;5003543;28;20206;-79
2022/10/16 06:17:37;;;;;;;1.60;1.45;;;14.30;99.90;;;;;;4990600;28;20207;-79
2022/10/16 06:20:05;;;;;;;2.53;1.67;;;14.30;99.90;;;;;;5007950;28;20215;-78
2022/10/16 06:22:33;;;;;;;4.03;1.48;;;14.30;99.90;;;;;;4993983;28;20234;-79
2022/10/16 06:25:01;;;;;;;3.65;1.75;;;14.30;99.90;;;;;;5008676;28;20199;-80
2022/10/16 06:27:30;;;;;;;3.40;1.55;;;14.30;99.90;;;;;;5013336;28;20202;-80
2022/10/16 06:30:00;;;;;;;3.10;1.70;;;14.40;99.90;;;;;;5010678;28;20230;-79
2022/10/16 06:32:28;;;;;;;1.85;1.42;;;14.30;99.90;;;;;;5004758;28;20199;-80
2022/10/16 06:34:56;;;;;;;1.55;1.40;;;14.30;99.90;;;;;;4992596;28;20206;-79
2022/10/16 06:37:24;;;;;;;1.75;1.33;;;14.30;99.90;;;;;;4995771;28;20223;-78
2022/10/16 06:39:53;;;;;;;3.20;1.20;;;14.30;99.90;;;;;;5015460;28;20211;-79
2022/10/16 06:42:20;;;;;;;4.00;1.58;;;14.30;99.90;;;;;;5011113;28;20224;-80
2022/10/16 06:44:50;;;;;;;1.67;1.40;;;14.40;99.90;;;;;;5008919;28;20744;-79
2022/10/16 06:47:17;;;;;;;2.33;1.50;;;14.70;99.90;;;;;;5012060;28;20214;-79
2022/10/16 06:49:45;;;;;;;2.83;1.40;;;14.90;99.90;;;;;;5010752;28;20219;-80
2022/10/16 06:52:12;;;;;;;3.25;1.35;;;14.70;99.90;;;;;;5014515;28;20196;-79
2022/10/16 06:54:40;;;;;;;1.95;1.48;;;14.60;99.90;;;;;;5006828;28;20215;-79
2022/10/16 06:57:07;;;;;;;3.45;1.50;;;14.50;99.90;;;;;;5007373;28;20215;-79
2022/10/16 06:59:35;;;;;;;2.00;1.70;;;14.50;99.90;;;;;;5013785;28;20219;-79
2022/10/16 07:02:03;;;;;;;3.92;1.90;;;14.50;99.90;;;;;;4992879;28;20219;-79
2022/10/16 07:04:31;;;;;;;3.50;2.00;;;14.50;99.90;;;;;;5007985;28;20197;-79
2022/10/16 07:07:01;;;;;;;4.13;1.42;;;14.50;99.90;;;;;;5013277;28;20203;-79
2022/10/16 07:09:28;;;;;;;3.83;1.80;;;14.50;99.90;;;;;;4997387;28;20226;-79
2022/10/16 07:11:56;;;;;;;1.98;1.63;;;14.50;99.90;;;;;;4997090;28;20211;-79
2022/10/16 07:14:23;;;;;;;2.05;1.77;;;14.50;99.90;;;;;;4997864;28;20196;-79
2022/10/16 07:16:50;;;;;;;3.30;1.85;;;14.60;99.90;;;;;;5010868;28;20529;-79
2022/10/16 07:19:19;;;;;;;2.35;1.42;;;14.60;99.90;;;;;;5015361;28;20254;-79
2022/10/16 07:21:46;;;;;;;2.17;1.70;;;14.60;99.90;;;;;;5014295;28;20212;-79
2022/10/16 07:24:16;;;;;;;3.05;1.95;;;14.70;99.90;;;;;;4997419;28;20212;-79
2022/10/16 07:26:45;;;;;;;1.70;1.60;;;14.70;99.90;;;;;;5013678;28;20196;-79
2022/10/16 07:29:14;;;;;;;2.10;1.90;;;14.70;99.90;;;;;;5014919;28;20220;-79
2022/10/16 07:31:42;;;;;;;2.55;1.60;;;14.80;99.90;;;;;;5020871;28;20187;-79
2022/10/16 07:34:11;;;;;;;1.70;1.60;;;14.70;99.90;;;;;;4996841;28;20207;-79
2022/10/16 07:36:40;;;;;;;2.30;1.92;;;14.80;99.90;;;;;;4994355;28;20196;-79
2022/10/16 07:39:07;;;;;;;2.72;2.00;;;14.80;99.90;;;;;;5011894;28;20230;-79
2022/10/16 07:41:36;;;;;;;4.07;2.20;;;14.80;99.90;;;;;;4996997;28;20200;-79
2022/10/16 07:44:04;;;;;;;2.72;1.88;;;14.90;99.90;;;;;;5012988;28;20207;-79
2022/10/16 07:46:33;;;;;;;2.83;2.10;;;14.90;99.90;;;;;;4996641;28;20208;-79
2022/10/16 07:49:03;;;;;;;2.17;1.70;;;15.00;99.90;;;;;;4993817;28;20565;-79
2022/10/16 07:51:32;;;;;;;2.42;1.98;;;15.10;99.90;;;;;;5012644;28;20208;-79
2022/10/16 07:54:01;;;;;;;2.17;1.88;;;15.20;99.90;;;;;;5014649;28;20195;-79
2022/10/16 07:56:34;;;;;;;4.47;2.00;;;15.30;99.90;;;;;;4995573;28;20230;-79
2022/10/16 07:59:02;;;;;;;1.98;1.77;;;15.40;99.90;;;;;;5009772;28;20204;-78
2022/10/16 08:01:30;;;;;;;2.72;1.95;;;15.40;99.90;;;;;;4994223;28;20211;-81
2022/10/16 08:03:58;;;;;;;2.90;1.92;;;15.50;99.90;;;;;;4997498;28;20229;-81
2022/10/16 08:06:36;;;;;;;3.55;1.95;;;15.50;99.90;;;;;;4997904;28;20204;-81
2022/10/16 08:09:06;;;;;;;3.20;2.25;;;15.60;99.90;;;;;;5014013;28;20199;-81
2022/10/16 08:11:33;;;;;;;1.80;1.65;;;15.60;99.90;;;;;;4998563;28;20196;-81
2022/10/16 08:14:01;;;;;;;2.00;1.60;;;15.70;99.90;;;;;;4994282;28;20192;-81
2022/10/16 08:16:29;;;;;;;3.13;1.75;;;15.70;99.90;;;;;;5019545;28;20200;-78
2022/10/16 08:18:56;;;;;;;2.28;1.60;;;15.80;99.90;;;;;;4995516;28;20207;-79
2022/10/16 08:21:24;;;;;;;2.45;1.50;;;15.80;99.90;;;;;;4991959;28;20262;-81
2022/10/16 08:23:54;;;;;;;4.93;1.75;;;15.90;99.90;;;;;;5018026;28;20673;-80
2022/10/16 08:26:23;;;;;;;2.72;1.67;;;15.90;99.90;;;;;;4995442;28;20199;-80
2022/10/16 08:28:53;;;;;;;2.20;1.52;;;16.00;99.90;;;;;;5009346;28;20204;-78
2022/10/16 08:31:21;;;;;;;2.80;1.52;;;16.00;99.90;;;;;;5011399;28;20204;-79
2022/10/16 08:33:49;;;;;;;1.40;1.10;;;15.90;99.90;;;;;;5012573;28;20187;-78
2022/10/16 08:36:31;;;;;;;3.55;1.30;;;16.00;99.90;;;;;;5012726;28;20200;-78
2022/10/16 08:38:58;;;;;;;1.80;1.20;;;16.00;99.90;;;;;;4994435;28;20218;-78
2022/10/16 08:42:00;;;;;;;1.88;1.15;;;16.10;99.90;;;;;;4988762;28;20250;-77
2022/10/16 08:44:55;;;;;;;2.35;1.17;;;16.00;99.90;;;;;;4985582;28;20229;-77
2022/10/16 08:47:26;;;;;;;2.35;1.13;;;16.10;99.90;;;;;;5008275;28;20200;-78
2022/10/16 08:49:59;;;;;;;1.73;1.30;;;16.10;99.90;;;;;;4999464;28;20238;-78
2022/10/16 08:52:36;;;;;;;1.50;1.05;;;16.20;99.90;;;;;;4991851;28;20207;-78
2022/10/16 08:55:27;;;;;;;4.20;1.52;;;16.20;99.90;;;;;;5007962;28;20199;-78
2022/10/16 08:58:21;;;;;;;2.58;1.20;;;16.30;99.90;;;;;;5007757;28;20188;-78
2022/10/16 09:00:50;;;;;;;2.92;1.05;;;16.50;99.90;;;;;;4988105;28;20608;-78
2022/10/16 09:03:28;;;;;;;2.60;1.15;;;16.40;99.90;;;;;;4989813;28;20562;-78
2022/10/16 09:06:14;;;;;;;1.90;0.80;;;16.40;99.90;;;;;;5006766;28;20199;-79
2022/10/16 09:08:52;;;;;;;1.48;1.13;;;16.50;99.90;;;;;;4992254;28;20215;-78
2022/10/16 09:11:40;;;;;;;1.15;1.05;;;16.50;99.90;;;;;;4989237;28;20207;-78
2022/10/16 09:14:37;;;;;;;2.35;0.93;;;16.60;99.90;;;;;;5011100;28;20196;-78
2022/10/16 09:17:21;;;;;;;2.85;0.82;;;16.70;99.90;;;;;;5007958;28;20206;-79
2022/10/16 09:19:56;;;;;;;2.63;1.05;;;16.70;99.90;;;;;;5007082;28;20230;-78
2022/10/16 09:22:29;;;;;;;1.10;1.00;;;16.70;99.90;;;;;;5011016;28;20214;-78
2022/10/16 09:25:01;;;;;;;1.55;0.95;;;16.70;99.90;;;;;;5009842;28;20207;-78
2022/10/16 09:27:29;;;;;;;4.10;1.02;;;16.60;99.90;;;;;;4995112;28;20282;-78
2022/10/16 09:29:57;;;;;;;2.50;1.10;;;16.80;99.90;;;;;;5005580;28;20227;-78
2022/10/16 09:32:33;;;;;;;3.63;0.98;;;16.90;99.90;;;;;;5002948;28;20555;-78
2022/10/16 09:35:04;;;;;;;2.97;1.10;;;16.80;99.90;;;;;;4991056;28;20196;-79
2022/10/16 09:37:32;;;;;;;3.65;1.23;;;16.80;99.90;;;;;;5009961;28;20661;-79
2022/10/16 09:39:59;;;;;;;2.70;1.20;;;16.90;99.90;;;;;;4993565;28;20227;-79
2022/10/16 09:42:32;;;;;;;1.20;1.00;;;17.10;99.90;;;;;;4994051;28;20215;-80
2022/10/16 09:45:01;;;;;;;2.55;1.00;;;17.20;99.90;;;;;;4994466;28;20206;-80
2022/10/16 09:47:31;;;;;;;4.55;1.00;;;17.10;99.90;;;;;;5010708;28;20211;-80
2022/10/16 09:50:01;;;;;;;2.63;0.95;;;17.10;99.90;;;;;;4992735;28;20597;-80
2022/10/16 09:52:30;;;;;;;2.28;1.00;;;17.20;99.90;;;;;;4987794;28;20199;-80
2022/10/16 09:54:59;;;;;;;1.70;1.10;;;17.30;99.90;;;;;;4992947;28;20207;-80
2022/10/16 09:57:27;;;;;;;2.63;1.13;;;17.30;99.90;;;;;;4992669;28;20696;-79
2022/10/16 09:59:56;;;;;;;9.48;5.15;;;17.30;99.90;;;;;;5014404;28;20230;-81
2022/10/16 10:02:33;;;;;;;2.28;0.88;;;17.50;99.90;;;;;;4995257;28;20421;-80
2022/10/16 10:05:19;;;;;;;1.80;0.77;;;17.40;99.90;;;;;;5010835;28;20219;-79
2022/10/16 10:07:46;;;;;;;2.67;1.00;;;17.40;99.90;;;;;;4993254;28;20207;-79
2022/10/16 10:10:21;;;;;;;2.88;1.02;;;17.60;99.90;;;;;;4991517;28;20231;-79
2022/10/16 10:12:49;;;;;;;1.77;1.05;;;17.80;99.90;;;;;;5007364;28;20654;-79
2022/10/16 10:15:19;;;;;;;2.80;0.85;;;17.80;99.90;;;;;;4991260;28;20215;-79
2022/10/16 10:17:51;;;;;;;3.30;1.23;;;17.90;99.90;;;;;;4993418;28;20207;-79
2022/10/16 10:20:27;;;;;;;2.45;0.90;;;17.80;99.90;;;;;;4990090;28;20227;-80
2022/10/16 10:22:56;;;;;;;1.80;0.90;;;17.70;99.90;;;;;;5012735;28;20211;-80
2022/10/16 10:25:39;;;;;;;2.30;1.00;;;17.90;99.90;;;;;;5011262;28;20211;-79
2022/10/16 10:28:30;;;;;;;3.65;1.00;;;17.80;99.90;;;;;;5011995;28;20208;-79
2022/10/16 10:31:04;;;;;;;5.53;1.23;;;17.70;99.90;;;;;;5004550;28;20216;-80
2022/10/16 10:33:45;;;;;;;3.88;1.52;;;17.70;99.90;;;;;;5012860;28;20192;-80
2022/10/16 10:36:29;;;;;;;2.85;1.00;;;17.80;99.90;;;;;;4992813;28;20196;-79
2022/10/16 10:39:00;;;;;;;3.30;1.10;;;18.00;99.90;;;;;;5008514;28;20684;-79
2022/10/16 10:41:47;;;;;;;2.17;1.20;;;18.00;99.90;;;;;;5007265;28;20199;-79
2022/10/16 10:44:23;;;;;;;1.40;0.98;;;18.00;99.90;;;;;;5010019;28;20216;-79
2022/10/16 10:46:54;;;;;;;1.88;1.10;;;18.00;99.90;;;;;;5009463;28;20210;-79
2022/10/16 10:49:47;;;;;;;2.65;1.23;;;18.10;99.90;;;;;;5005734;28;20224;-79
2022/10/16 10:52:33;;;;;;;1.58;1.38;;;18.00;99.90;;;;;;5010779;28;20215;-79
2022/10/16 10:55:09;;;;;;;1.38;1.00;;;18.20;99.90;;;;;;4996741;28;20192;-79
2022/10/16 10:57:47;;;;;;;1.77;1.27;;;18.40;99.90;;;;;;5007795;28;20211;-79
2022/10/16 11:04:34;;;;;;;2.83;1.20;;;18.20;99.90;;;;;;5020040;28;20215;-79
2022/10/16 11:07:06;;;;;;;3.60;1.52;;;18.50;99.90;;;;;;5001436;28;20203;-79
2022/10/16 11:09:39;;;;;;;2.97;1.13;;;18.60;99.90;;;;;;4996452;28;20238;-80
2022/10/16 11:12:12;;;;;;;2.15;1.38;;;18.70;99.90;;;;;;5013252;28;20200;-79
2022/10/16 11:14:53;;;;;;;3.40;1.27;;;18.80;99.90;;;;;;4995830;28;20530;-79
2022/10/16 11:17:26;;;;;;;2.28;1.60;;;19.00;99.90;;;;;;4998572;28;20203;-79
2022/10/16 11:19:56;;;;;;;1.98;1.23;;;18.90;99.90;;;;;;5010265;28;20219;-77
2022/10/16 11:22:31;;;;;;;2.55;1.35;;;19.20;99.90;;;;;;5005319;28;20748;-77
2022/10/16 11:25:05;;;;;;;2.97;1.13;;;19.40;99.90;;;;;;4997524;28;20219;-78
2022/10/16 11:27:39;;;;;;;1.80;1.23;;;19.60;99.90;;;;;;5018195;28;20197;-78
2022/10/16 11:30:17;;;;;;;1.92;1.13;;;20.00;99.90;;;;;;4992769;28;20215;-78
2022/10/16 11:32:55;;;;;;;2.10;1.30;;;20.00;99.90;;;;;;5009648;28;20235;-78
2022/10/16 11:35:39;;;;;;;1.58;0.95;;;19.90;99.90;;;;;;4996506;28;20200;-78
2022/10/16 11:38:16;;;;;;;1.30;1.00;;;19.70;99.90;;;;;;5008788;28;20200;-79
2022/10/16 11:40:47;;;;;;;2.10;1.10;;;19.90;99.90;;;;;;4986065;28;20226;-78
2022/10/16 11:43:21;;;;;;;2.67;1.17;;;19.90;99.90;;;;;;5009220;28;20669;-78
2022/10/16 11:45:52;;;;;;;2.13;1.10;;;19.40;99.90;;;;;;4990879;28;20243;-79
2022/10/16 11:48:28;;;;;;;1.85;0.85;;;19.30;99.90;;;;;;4990414;28;20214;-78
2022/10/16 11:51:01;;;;;;;1.23;0.80;;;19.40;99.90;;;;;;5010286;28;20227;-80
2022/10/16 11:53:45;;;;;;;2.35;1.13;;;19.70;99.90;;;;;;4986015;28;20570;-79
2022/10/16 11:56:14;;;;;;;2.55;0.80;;;19.70;99.90;;;;;;4992507;28;20200;-79
2022/10/16 11:58:53;;;;;;;4.88;1.35;;;19.40;99.90;;;;;;4989375;28;20575;-78
2022/10/16 12:01:27;;;;;;;2.25;1.20;;;19.20;99.90;;;;;;5005872;28;20199;-79
2022/10/16 12:04:14;;;;;;;1.45;1.00;;;19.50;99.90;;;;;;5005956;28;20192;-79
2022/10/16 12:06:48;;;;;;;2.80;0.85;;;19.70;99.90;;;;;;4986893;28;20196;-79
2022/10/16 12:09:22;;;;;;;0.80;0.70;;;19.40;99.90;;;;;;5008267;28;20227;-79
2022/10/16 12:11:50;;;;;;;2.28;0.60;;;19.40;99.90;;;;;;5003485;28;20210;-79
2022/10/16 12:14:35;;;;;;;4.18;0.80;;;19.30;99.90;;;;;;4990135;28;20203;-79
2022/10/16 12:17:05;;;;;;;3.15;1.02;;;19.80;99.90;;;;;;5003133;28;20199;-79
2022/10/16 12:19:33;;;;;;;3.40;0.73;;;19.80;99.10;;;;;;5006110;28;20226;-79
2022/10/16 12:22:03;;;;;;;1.50;0.63;;;20.00;98.60;;;;;;5008328;28;20203;-79
2022/10/16 12:24:37;;;;;;;2.13;0.70;;;20.40;98.30;;;;;;5009365;28;20212;-79
2022/10/16 12:27:07;;;;;;;1.95;0.60;;;20.70;98.10;;;;;;5006899;28;20211;-79
2022/10/16 12:29:38;;;;;;;1.10;0.60;;;21.20;97.30;;;;;;5004867;28;20234;-79
2022/10/16 12:32:23;;;;;;;1.83;0.50;;;21.30;95.70;;;;;;5003584;28;20584;-80
2022/10/16 12:34:51;;;;;;;1.67;0.68;;;21.20;96.40;;;;;;4990366;28;20199;-80
2022/10/16 12:37:23;;;;;;;1.08;0.60;;;22.30;95.40;;;;;;4992144;28;20202;-79
2022/10/16 12:39:53;;;;;;;0.93;0.63;;;21.60;92.80;;;;;;5012232;28;20223;-80
2022/10/16 12:42:31;;;;;;;1.85;0.47;;;21.40;94.30;;;;;;5009359;28;20207;-79
2022/10/16 12:44:58;;;;;;;1.42;0.40;;;21.20;94.60;;;;;;5005639;28;20283;-80
2022/10/16 12:47:38;;;;;;;1.27;0.70;;;21.40;95.00;;;;;;4994780;28;20215;-79
2022/10/16 12:50:28;;;;;;;1.40;0.50;;;21.50;93.50;;;;;;4987128;28;20227;-79
2022/10/16 12:52:56;;;;;;;1.23;0.63;;;21.00;93.90;;;;;;5003195;28;20191;-79
2022/10/16 12:55:25;;;;;;;1.67;0.60;;;20.60;94.60;;;;;;5003435;28;20574;-79
2022/10/16 12:58:09;;;;;;;2.25;0.75;;;20.30;95.10;;;;;;5004071;28;20704;-79
2022/10/16 13:00:44;;;;;;;0.90;0.43;;;20.00;96.10;;;;;;4988941;28;20219;-79
2022/10/16 13:03:48;;;;;;;1.42;0.60;;;20.10;96.40;;;;;;4989079;28;20200;-79
2022/10/16 13:06:29;;;;;;;1.67;0.80;;;20.30;96.30;;;;;;5004474;28;20191;-79
2022/10/16 13:09:10;;;;;;;1.95;0.68;;;21.00;95.90;;;;;;5008092;28;20203;-79
2022/10/16 13:12:03;;;;;;;1.60;0.70;;;21.10;94.80;;;;;;5000602;28;20207;-80
2022/10/16 13:14:49;;;;;;;1.77;0.60;;;21.20;95.00;;;;;;4999871;28;20488;-79
2022/10/16 13:17:23;;;;;;;2.35;0.73;;;21.40;94.20;;;;;;5005785;28;20211;-79
2022/10/16 13:19:59;;;;;;;2.88;0.80;;;21.30;94.20;;;;;;4989609;28;20227;-79